sensor_id;sensor_type;location;lat;lon;timestamp;P1;durP1;ratioP1;P2;durP2;ratioP2
17614;SDS011;8926;49.720;6.576;2022-11-11T00:02:21;5.20;;;4.70;;
17614;SDS011;8926;49.720;6.576;2022-11-11T00:04:46;5.90;;;5.23;;
17614;SDS011;8926;49.720;6.576;2022-11-11T00:07:11;5.17;;;4.67;;
17614;SDS011;8926;49.720;6.576;2022-11-11T00:09:37;5.47;;;4.20;;
17614;SDS011;8926;49.720;6.576;2022-11-11T00:12:02;5.17;;;4.67;;
17614;SDS011;8926;49.720;6.576;2022-11-11T00:14:27;5.13;;;4.63;;
17614;SDS011;8926;49.720;6.576;2022-11-11T00:16:53;5.10;;;4.60;;
17614;SDS011;8926;49.720;6.576;2022-11-11T00:19:37;7.60;;;5.77;;
17614;SDS011;8926;49.720;6.576;2022-11-11T00:22:21;6.87;;;5.77;;
17614;SDS011;8926;49.720;6.576;2022-11-11T00:25:06;8.93;;;5.63;;
17614;SDS011;8926;49.720;6.576;2022-11-11T00:27:33;5.70;;;5.20;;
17614;SDS011;8926;49.720;6.576;2022-11-11T00:29:58;8.03;;;5.87;;
17614;SDS011;8926;49.720;6.576;2022-11-11T00:32:24;8.73;;;6.73;;
17614;SDS011;8926;49.720;6.576;2022-11-11T00:34:56;9.20;;;6.60;;
17614;SDS011;8926;49.720;6.576;2022-11-11T00:37:41;6.10;;;5.50;;
17614;SDS011;8926;49.720;6.576;2022-11-11T00:40:09;7.33;;;6.13;;
17614;SDS011;8926;49.720;6.576;2022-11-11T00:42:36;7.30;;;6.60;;
17614;SDS011;8926;49.720;6.576;2022-11-11T00:45:01;8.37;;;6.10;;
17614;SDS011;8926;49.720;6.576;2022-11-11T00:47:27;6.80;;;6.10;;
17614;SDS011;8926;49.720;6.576;2022-11-11T00:50:15;7.07;;;6.37;;
17614;SDS011;8926;49.720;6.576;2022-11-11T00:53:11;6.73;;;6.13;;
17614;SDS011;8926;49.720;6.576;2022-11-11T00:55:45;5.63;;;5.13;;
17614;SDS011;8926;49.720;6.576;2022-11-11T00:58:10;4.50;;;4.10;;
17614;SDS011;8926;49.720;6.576;2022-11-11T01:00:35;7.43;;;6.80;;
17614;SDS011;8926;49.720;6.576;2022-11-11T01:03:00;9.50;;;8.10;;
17614;SDS011;8926;49.720;6.576;2022-11-11T01:05:26;10.13;;;8.73;;
17614;SDS011;8926;49.720;6.576;2022-11-11T01:07:51;8.67;;;7.87;;
17614;SDS011;8926;49.720;6.576;2022-11-11T01:10:19;7.90;;;6.67;;
17614;SDS011;8926;49.720;6.576;2022-11-11T01:13:06;6.50;;;5.90;;
17614;SDS011;8926;49.720;6.576;2022-11-11T01:15:42;7.00;;;6.23;;
17614;SDS011;8926;49.720;6.576;2022-11-11T01:18:10;6.47;;;5.77;;
17614;SDS011;8926;49.720;6.576;2022-11-11T01:20:37;6.43;;;5.83;;
17614;SDS011;8926;49.720;6.576;2022-11-11T01:23:03;5.00;;;4.60;;
17614;SDS011;8926;49.720;6.576;2022-11-11T01:25:33;8.47;;;7.67;;
17614;SDS011;8926;49.720;6.576;2022-11-11T01:28:02;8.47;;;7.30;;
17614;SDS011;8926;49.720;6.576;2022-11-11T01:30:30;7.40;;;6.70;;
17614;SDS011;8926;49.720;6.576;2022-11-11T01:32:56;6.87;;;6.03;;
17614;SDS011;8926;49.720;6.576;2022-11-11T01:35:22;6.97;;;6.37;;
17614;SDS011;8926;49.720;6.576;2022-11-11T01:37:48;7.40;;;6.60;;
17614;SDS011;8926;49.720;6.576;2022-11-11T01:40:13;6.67;;;6.07;;
17614;SDS011;8926;49.720;6.576;2022-11-11T01:48:28;6.27;;;5.67;;
17614;SDS011;8926;49.720;6.576;2022-11-11T01:51:21;8.50;;;6.73;;
17614;SDS011;8926;49.720;6.576;2022-11-11T01:54:03;6.73;;;6.13;;
17614;SDS011;8926;49.720;6.576;2022-11-11T01:56:33;8.30;;;7.47;;
17614;SDS011;8926;49.720;6.576;2022-11-11T01:59:01;7.47;;;6.77;;
17614;SDS011;8926;49.720;6.576;2022-11-11T02:01:31;9.40;;;7.97;;
17614;SDS011;8926;49.720;6.576;2022-11-11T02:03:57;7.33;;;6.73;;
17614;SDS011;8926;49.720;6.576;2022-11-11T02:06:43;6.27;;;5.67;;
17614;SDS011;8926;49.720;6.576;2022-11-11T02:09:09;7.47;;;6.67;;
17614;SDS011;8926;49.720;6.576;2022-11-11T02:11:35;7.23;;;6.53;;
17614;SDS011;8926;49.720;6.576;2022-11-11T02:14:23;9.90;;;8.03;;
17614;SDS011;8926;49.720;6.576;2022-11-11T02:17:01;7.90;;;7.20;;
17614;SDS011;8926;49.720;6.576;2022-11-11T02:19:36;11.07;;;8.17;;
17614;SDS011;8926;49.720;6.576;2022-11-11T02:22:02;9.20;;;8.30;;
17614;SDS011;8926;49.720;6.576;2022-11-11T02:24:34;7.53;;;6.83;;
17614;SDS011;8926;49.720;6.576;2022-11-11T02:27:00;8.97;;;7.97;;
17614;SDS011;8926;49.720;6.576;2022-11-11T02:29:26;8.20;;;7.40;;
17614;SDS011;8926;49.720;6.576;2022-11-11T02:31:54;8.23;;;7.43;;
17614;SDS011;8926;49.720;6.576;2022-11-11T02:34:19;8.83;;;7.93;;
17614;SDS011;8926;49.720;6.576;2022-11-11T02:36:44;7.63;;;6.93;;
17614;SDS011;8926;49.720;6.576;2022-11-11T02:39:10;8.17;;;7.37;;
17614;SDS011;8926;49.720;6.576;2022-11-11T02:41:35;9.43;;;8.37;;
17614;SDS011;8926;49.720;6.576;2022-11-11T02:44:19;10.57;;;8.50;;
17614;SDS011;8926;49.720;6.576;2022-11-11T02:46:44;6.63;;;6.03;;
17614;SDS011;8926;49.720;6.576;2022-11-11T02:49:10;7.10;;;6.43;;
17614;SDS011;8926;49.720;6.576;2022-11-11T02:51:35;7.37;;;6.67;;
17614;SDS011;8926;49.720;6.576;2022-11-11T02:54:00;7.03;;;6.43;;
17614;SDS011;8926;49.720;6.576;2022-11-11T02:56:26;8.60;;;7.67;;
17614;SDS011;8926;49.720;6.576;2022-11-11T02:59:10;6.97;;;6.37;;
17614;SDS011;8926;49.720;6.576;2022-11-11T03:01:36;6.23;;;5.63;;
17614;SDS011;8926;49.720;6.576;2022-11-11T03:04:01;5.40;;;4.90;;
17614;SDS011;8926;49.720;6.576;2022-11-11T03:06:26;5.00;;;4.60;;
17614;SDS011;8926;49.720;6.576;2022-11-11T03:08:51;4.00;;;3.70;;
17614;SDS011;8926;49.720;6.576;2022-11-11T03:11:17;4.00;;;3.70;;
17614;SDS011;8926;49.720;6.576;2022-11-11T03:13:57;3.50;;;3.20;;
17614;SDS011;8926;49.720;6.576;2022-11-11T03:16:24;3.50;;;3.20;;
17614;SDS011;8926;49.720;6.576;2022-11-11T03:19:08;3.30;;;3.10;;
17614;SDS011;8926;49.720;6.576;2022-11-11T03:21:34;3.67;;;3.37;;
17614;SDS011;8926;49.720;6.576;2022-11-11T03:23:59;3.70;;;3.40;;
17614;SDS011;8926;49.720;6.576;2022-11-11T03:26:24;3.23;;;3.00;;
17614;SDS011;8926;49.720;6.576;2022-11-11T03:28:50;3.33;;;3.10;;
17614;SDS011;8926;49.720;6.576;2022-11-11T03:31:15;3.67;;;3.37;;
17614;SDS011;8926;49.720;6.576;2022-11-11T03:33:41;4.07;;;3.77;;
17614;SDS011;8926;49.720;6.576;2022-11-11T03:36:06;4.77;;;4.37;;
17614;SDS011;8926;49.720;6.576;2022-11-11T03:38:32;5.20;;;4.80;;
17614;SDS011;8926;49.720;6.576;2022-11-11T03:40:57;4.23;;;3.93;;
17614;SDS011;8926;49.720;6.576;2022-11-11T03:43:24;4.93;;;4.53;;
17614;SDS011;8926;49.720;6.576;2022-11-11T03:45:52;5.47;;;4.97;;
17614;SDS011;8926;49.720;6.576;2022-11-11T03:48:18;5.57;;;5.07;;
17614;SDS011;8926;49.720;6.576;2022-11-11T03:50:47;5.33;;;4.93;;
17614;SDS011;8926;49.720;6.576;2022-11-11T03:53:13;4.60;;;4.20;;
17614;SDS011;8926;49.720;6.576;2022-11-11T03:55:40;4.00;;;3.70;;
17614;SDS011;8926;49.720;6.576;2022-11-11T03:58:06;4.53;;;4.20;;
17614;SDS011;8926;49.720;6.576;2022-11-11T04:00:32;5.87;;;5.37;;
17614;SDS011;8926;49.720;6.576;2022-11-11T04:03:05;5.60;;;5.00;;
17614;SDS011;8926;49.720;6.576;2022-11-11T04:05:52;5.17;;;4.77;;
17614;SDS011;8926;49.720;6.576;2022-11-11T04:08:36;5.53;;;5.03;;
17614;SDS011;8926;49.720;6.576;2022-11-11T04:11:24;4.60;;;4.20;;
17614;SDS011;8926;49.720;6.576;2022-11-11T04:13:55;4.37;;;3.97;;
17614;SDS011;8926;49.720;6.576;2022-11-11T04:16:43;4.60;;;4.20;;
17614;SDS011;8926;49.720;6.576;2022-11-11T04:19:08;5.13;;;4.67;;
17614;SDS011;8926;49.720;6.576;2022-11-11T04:22:12;7.00;;;6.30;;
17614;SDS011;8926;49.720;6.576;2022-11-11T04:24:37;5.90;;;5.40;;
17614;SDS011;8926;49.720;6.576;2022-11-11T04:27:21;6.10;;;5.60;;
17614;SDS011;8926;49.720;6.576;2022-11-11T04:29:46;6.07;;;5.57;;
17614;SDS011;8926;49.720;6.576;2022-11-11T04:32:13;5.90;;;5.40;;
17614;SDS011;8926;49.720;6.576;2022-11-11T04:34:59;5.50;;;5.03;;
17614;SDS011;8926;49.720;6.576;2022-11-11T04:37:31;5.93;;;5.43;;
17614;SDS011;8926;49.720;6.576;2022-11-11T04:39:58;6.40;;;5.80;;
17614;SDS011;8926;49.720;6.576;2022-11-11T04:42:42;6.77;;;6.17;;
17614;SDS011;8926;49.720;6.576;2022-11-11T04:45:11;7.77;;;6.97;;
17614;SDS011;8926;49.720;6.576;2022-11-11T04:50:23;6.90;;;6.17;;
17614;SDS011;8926;49.720;6.576;2022-11-11T04:52:50;6.47;;;5.87;;
17614;SDS011;8926;49.720;6.576;2022-11-11T04:55:16;9.07;;;8.17;;
17614;SDS011;8926;49.720;6.576;2022-11-11T04:58:00;8.33;;;7.33;;
17614;SDS011;8926;49.720;6.576;2022-11-11T05:00:26;7.67;;;6.97;;
17614;SDS011;8926;49.720;6.576;2022-11-11T05:02:56;9.67;;;8.73;;
17614;SDS011;8926;49.720;6.576;2022-11-11T05:05:43;11.60;;;9.17;;
17614;SDS011;8926;49.720;6.576;2022-11-11T05:08:29;10.17;;;8.87;;
17614;SDS011;8926;49.720;6.576;2022-11-11T05:11:13;10.73;;;8.73;;
17614;SDS011;8926;49.720;6.576;2022-11-11T05:13:39;11.23;;;9.70;;
17614;SDS011;8926;49.720;6.576;2022-11-11T05:16:24;9.00;;;7.97;;
17614;SDS011;8926;49.720;6.576;2022-11-11T05:19:12;8.20;;;7.33;;
17614;SDS011;8926;49.720;6.576;2022-11-11T05:22:04;7.77;;;7.07;;
17614;SDS011;8926;49.720;6.576;2022-11-11T05:24:40;11.17;;;9.87;;
17614;SDS011;8926;49.720;6.576;2022-11-11T05:27:24;12.80;;;10.70;;
17614;SDS011;8926;49.720;6.576;2022-11-11T05:29:50;9.83;;;8.40;;
17614;SDS011;8926;49.720;6.576;2022-11-11T05:32:20;10.07;;;9.17;;
17614;SDS011;8926;49.720;6.576;2022-11-11T05:34:46;10.20;;;9.17;;
17614;SDS011;8926;49.720;6.576;2022-11-11T05:37:14;10.97;;;8.80;;
17614;SDS011;8926;49.720;6.576;2022-11-11T05:39:40;9.30;;;8.13;;
17614;SDS011;8926;49.720;6.576;2022-11-11T05:42:05;12.03;;;9.37;;
17614;SDS011;8926;49.720;6.576;2022-11-11T05:44:31;18.33;;;11.97;;
17614;SDS011;8926;49.720;6.576;2022-11-11T05:46:57;13.17;;;10.00;;
17614;SDS011;8926;49.720;6.576;2022-11-11T05:49:22;12.77;;;11.17;;
17614;SDS011;8926;49.720;6.576;2022-11-11T05:51:49;10.53;;;9.00;;
17614;SDS011;8926;49.720;6.576;2022-11-11T05:54:15;10.43;;;9.43;;
17614;SDS011;8926;49.720;6.576;2022-11-11T05:56:40;8.30;;;7.30;;
17614;SDS011;8926;49.720;6.576;2022-11-11T05:59:06;14.67;;;11.03;;
17614;SDS011;8926;49.720;6.576;2022-11-11T06:01:32;12.77;;;10.47;;
17614;SDS011;8926;49.720;6.576;2022-11-11T06:03:58;9.80;;;8.77;;
17614;SDS011;8926;49.720;6.576;2022-11-11T06:06:23;11.50;;;9.47;;
17614;SDS011;8926;49.720;6.576;2022-11-11T06:08:48;10.37;;;9.10;;
17614;SDS011;8926;49.720;6.576;2022-11-11T06:11:14;11.30;;;9.43;;
17614;SDS011;8926;49.720;6.576;2022-11-11T06:13:39;12.17;;;10.17;;
17614;SDS011;8926;49.720;6.576;2022-11-11T06:16:04;11.30;;;10.10;;
17614;SDS011;8926;49.720;6.576;2022-11-11T06:18:30;10.60;;;9.50;;
17614;SDS011;8926;49.720;6.576;2022-11-11T06:20:56;13.30;;;9.60;;
17614;SDS011;8926;49.720;6.576;2022-11-11T06:23:23;11.73;;;9.17;;
17614;SDS011;8926;49.720;6.576;2022-11-11T06:25:49;16.43;;;11.47;;
17614;SDS011;8926;49.720;6.576;2022-11-11T06:28:34;14.30;;;11.07;;
17614;SDS011;8926;49.720;6.576;2022-11-11T06:30:59;15.60;;;11.00;;
17614;SDS011;8926;49.720;6.576;2022-11-11T06:33:25;11.30;;;9.53;;
17614;SDS011;8926;49.720;6.576;2022-11-11T06:35:50;9.63;;;8.17;;
17614;SDS011;8926;49.720;6.576;2022-11-11T06:38:16;7.77;;;6.33;;
17614;SDS011;8926;49.720;6.576;2022-11-11T06:40:42;7.03;;;6.37;;
17614;SDS011;8926;49.720;6.576;2022-11-11T06:43:08;6.07;;;5.47;;
17614;SDS011;8926;49.720;6.576;2022-11-11T06:45:33;7.00;;;6.20;;
17614;SDS011;8926;49.720;6.576;2022-11-11T06:48:00;7.73;;;5.80;;
17614;SDS011;8926;49.720;6.576;2022-11-11T06:50:26;8.87;;;7.60;;
17614;SDS011;8926;49.720;6.576;2022-11-11T06:52:52;9.10;;;7.57;;
17614;SDS011;8926;49.720;6.576;2022-11-11T06:55:18;7.93;;;7.13;;
17614;SDS011;8926;49.720;6.576;2022-11-11T06:57:43;9.20;;;7.83;;
17614;SDS011;8926;49.720;6.576;2022-11-11T07:00:09;7.17;;;6.47;;
17614;SDS011;8926;49.720;6.576;2022-11-11T07:02:35;6.80;;;6.20;;
17614;SDS011;8926;49.720;6.576;2022-11-11T07:05:00;6.50;;;5.90;;
17614;SDS011;8926;49.720;6.576;2022-11-11T07:07:26;8.67;;;7.60;;
17614;SDS011;8926;49.720;6.576;2022-11-11T07:09:52;7.47;;;6.73;;
17614;SDS011;8926;49.720;6.576;2022-11-11T07:12:19;8.30;;;7.27;;
17614;SDS011;8926;49.720;6.576;2022-11-11T07:14:45;7.83;;;7.03;;
17614;SDS011;8926;49.720;6.576;2022-11-11T07:17:10;8.17;;;7.37;;
17614;SDS011;8926;49.720;6.576;2022-11-11T07:19:36;8.43;;;7.60;;
17614;SDS011;8926;49.720;6.576;2022-11-11T07:22:01;7.90;;;7.17;;
17614;SDS011;8926;49.720;6.576;2022-11-11T07:24:26;6.10;;;5.60;;
17614;SDS011;8926;49.720;6.576;2022-11-11T07:26:52;7.07;;;6.13;;
17614;SDS011;8926;49.720;6.576;2022-11-11T07:29:17;6.43;;;5.83;;
17614;SDS011;8926;49.720;6.576;2022-11-11T07:31:43;6.33;;;5.73;;
17614;SDS011;8926;49.720;6.576;2022-11-11T07:34:09;6.40;;;5.77;;
17614;SDS011;8926;49.720;6.576;2022-11-11T07:36:34;6.67;;;6.03;;
17614;SDS011;8926;49.720;6.576;2022-11-11T07:38:59;5.57;;;4.60;;
17614;SDS011;8926;49.720;6.576;2022-11-11T07:41:25;5.60;;;5.10;;
17614;SDS011;8926;49.720;6.576;2022-11-11T07:43:50;4.50;;;4.10;;
17614;SDS011;8926;49.720;6.576;2022-11-11T07:46:16;4.63;;;4.23;;
17614;SDS011;8926;49.720;6.576;2022-11-11T07:48:41;5.13;;;4.30;;
17614;SDS011;8926;49.720;6.576;2022-11-11T07:51:06;4.93;;;4.53;;
17614;SDS011;8926;49.720;6.576;2022-11-11T07:53:32;4.77;;;4.37;;
17614;SDS011;8926;49.720;6.576;2022-11-11T07:55:57;5.03;;;4.63;;
17614;SDS011;8926;49.720;6.576;2022-11-11T07:58:22;4.90;;;4.50;;
17614;SDS011;8926;49.720;6.576;2022-11-11T08:00:48;4.67;;;4.27;;
17614;SDS011;8926;49.720;6.576;2022-11-11T08:03:13;4.37;;;3.97;;
17614;SDS011;8926;49.720;6.576;2022-11-11T08:05:38;4.90;;;4.33;;
17614;SDS011;8926;49.720;6.576;2022-11-11T08:08:04;3.80;;;3.50;;
17614;SDS011;8926;49.720;6.576;2022-11-11T08:10:30;3.17;;;2.97;;
17614;SDS011;8926;49.720;6.576;2022-11-11T08:12:56;5.07;;;4.67;;
17614;SDS011;8926;49.720;6.576;2022-11-11T08:15:40;4.37;;;3.97;;
17614;SDS011;8926;49.720;6.576;2022-11-11T08:18:06;5.50;;;5.00;;
17614;SDS011;8926;49.720;6.576;2022-11-11T08:20:31;4.23;;;3.93;;
17614;SDS011;8926;49.720;6.576;2022-11-11T08:22:57;4.77;;;4.37;;
17614;SDS011;8926;49.720;6.576;2022-11-11T08:25:23;4.83;;;4.37;;
17614;SDS011;8926;49.720;6.576;2022-11-11T08:27:49;4.27;;;3.87;;
17614;SDS011;8926;49.720;6.576;2022-11-11T08:30:24;4.13;;;3.70;;
17614;SDS011;8926;49.720;6.576;2022-11-11T08:32:58;4.17;;;3.77;;
17614;SDS011;8926;49.720;6.576;2022-11-11T08:35:25;3.40;;;3.10;;
17614;SDS011;8926;49.720;6.576;2022-11-11T08:37:51;2.97;;;2.77;;
17614;SDS011;8926;49.720;6.576;2022-11-11T08:40:16;4.13;;;3.83;;
17614;SDS011;8926;49.720;6.576;2022-11-11T08:42:42;3.70;;;3.40;;
17614;SDS011;8926;49.720;6.576;2022-11-11T08:45:07;3.80;;;3.50;;
17614;SDS011;8926;49.720;6.576;2022-11-11T08:47:36;4.13;;;3.77;;
17614;SDS011;8926;49.720;6.576;2022-11-11T08:50:02;4.63;;;3.87;;
17614;SDS011;8926;49.720;6.576;2022-11-11T08:52:28;3.90;;;3.60;;
17614;SDS011;8926;49.720;6.576;2022-11-11T08:54:53;4.20;;;3.80;;
17614;SDS011;8926;49.720;6.576;2022-11-11T08:57:19;3.50;;;3.30;;
17614;SDS011;8926;49.720;6.576;2022-11-11T08:59:44;3.90;;;3.50;;
17614;SDS011;8926;49.720;6.576;2022-11-11T09:02:10;3.73;;;3.53;;
17614;SDS011;8926;49.720;6.576;2022-11-11T09:04:36;4.10;;;3.67;;
17614;SDS011;8926;49.720;6.576;2022-11-11T09:07:02;3.17;;;2.97;;
17614;SDS011;8926;49.720;6.576;2022-11-11T09:09:27;3.07;;;2.87;;
17614;SDS011;8926;49.720;6.576;2022-11-11T09:11:52;4.53;;;3.77;;
17614;SDS011;8926;49.720;6.576;2022-11-11T09:14:18;4.03;;;3.73;;
17614;SDS011;8926;49.720;6.576;2022-11-11T09:16:43;4.60;;;4.20;;
17614;SDS011;8926;49.720;6.576;2022-11-11T09:19:08;5.60;;;5.10;;
17614;SDS011;8926;49.720;6.576;2022-11-11T09:21:33;4.87;;;4.53;;
17614;SDS011;8926;49.720;6.576;2022-11-11T09:23:59;5.23;;;4.83;;
17614;SDS011;8926;49.720;6.576;2022-11-11T09:26:24;6.47;;;4.90;;
17614;SDS011;8926;49.720;6.576;2022-11-11T09:28:50;6.90;;;6.40;;
17614;SDS011;8926;49.720;6.576;2022-11-11T09:31:15;5.37;;;4.87;;
17614;SDS011;8926;49.720;6.576;2022-11-11T09:33:41;6.27;;;5.77;;
17614;SDS011;8926;49.720;6.576;2022-11-11T09:36:06;4.70;;;4.40;;
17614;SDS011;8926;49.720;6.576;2022-11-11T09:38:32;5.70;;;5.23;;
17614;SDS011;8926;49.720;6.576;2022-11-11T09:43:45;5.07;;;4.67;;
17614;SDS011;8926;49.720;6.576;2022-11-11T09:46:28;4.83;;;4.43;;
17614;SDS011;8926;49.720;6.576;2022-11-11T09:51:42;5.90;;;5.40;;
17614;SDS011;8926;49.720;6.576;2022-11-11T09:54:12;6.57;;;5.97;;
17614;SDS011;8926;49.720;6.576;2022-11-11T09:56:43;6.40;;;5.90;;
17614;SDS011;8926;49.720;6.576;2022-11-11T10:01:49;5.80;;;5.40;;
17614;SDS011;8926;49.720;6.576;2022-11-11T10:04:23;6.67;;;6.07;;
17614;SDS011;8926;49.720;6.576;2022-11-11T10:07:03;7.33;;;6.73;;
17614;SDS011;8926;49.720;6.576;2022-11-11T10:09:43;6.67;;;6.17;;
17614;SDS011;8926;49.720;6.576;2022-11-11T10:12:15;6.40;;;5.90;;
17614;SDS011;8926;49.720;6.576;2022-11-11T10:14:44;5.77;;;5.33;;
17614;SDS011;8926;49.720;6.576;2022-11-11T10:17:15;6.07;;;5.47;;
17614;SDS011;8926;49.720;6.576;2022-11-11T10:25:53;4.70;;;4.40;;
17614;SDS011;8926;49.720;6.576;2022-11-11T10:28:22;5.20;;;4.80;;
17614;SDS011;8926;49.720;6.576;2022-11-11T10:30:52;5.20;;;4.80;;
17614;SDS011;8926;49.720;6.576;2022-11-11T10:33:20;5.63;;;5.23;;
17614;SDS011;8926;49.720;6.576;2022-11-11T10:35:51;5.80;;;5.30;;
17614;SDS011;8926;49.720;6.576;2022-11-11T10:39:02;6.37;;;5.97;;
17614;SDS011;8926;49.720;6.576;2022-11-11T10:41:16;6.00;;;5.50;;
17614;SDS011;8926;49.720;6.576;2022-11-11T10:43:47;8.70;;;7.90;;
17614;SDS011;8926;49.720;6.576;2022-11-11T10:48:52;7.17;;;6.60;;
17614;SDS011;8926;49.720;6.576;2022-11-11T10:51:59;6.90;;;6.30;;
17614;SDS011;8926;49.720;6.576;2022-11-11T10:54:37;7.33;;;6.73;;
17614;SDS011;8926;49.720;6.576;2022-11-11T10:57:19;7.27;;;6.60;;
17614;SDS011;8926;49.720;6.576;2022-11-11T11:00:12;6.37;;;5.87;;
17614;SDS011;8926;49.720;6.576;2022-11-11T11:08:16;4.87;;;4.47;;
17614;SDS011;8926;49.720;6.576;2022-11-11T11:10:52;5.40;;;5.00;;
17614;SDS011;8926;49.720;6.576;2022-11-11T11:13:42;6.87;;;6.37;;
17614;SDS011;8926;49.720;6.576;2022-11-11T11:16:16;5.70;;;5.30;;
17614;SDS011;8926;49.720;6.576;2022-11-11T11:19:04;4.13;;;3.83;;
17614;SDS011;8926;49.720;6.576;2022-11-11T11:21:51;4.00;;;3.70;;
17614;SDS011;8926;49.720;6.576;2022-11-11T11:24:19;3.07;;;2.87;;
17614;SDS011;8926;49.720;6.576;2022-11-11T11:26:46;4.13;;;3.83;;
17614;SDS011;8926;49.720;6.576;2022-11-11T11:29:13;3.70;;;3.50;;
17614;SDS011;8926;49.720;6.576;2022-11-11T11:31:48;5.30;;;4.90;;
17614;SDS011;8926;49.720;6.576;2022-11-11T11:34:14;5.53;;;5.13;;
17614;SDS011;8926;49.720;6.576;2022-11-11T11:36:39;5.40;;;5.00;;
17614;SDS011;8926;49.720;6.576;2022-11-11T11:39:05;4.50;;;4.20;;
17614;SDS011;8926;49.720;6.576;2022-11-11T11:41:44;4.33;;;4.03;;
17614;SDS011;8926;49.720;6.576;2022-11-11T11:44:29;3.97;;;3.77;;
17614;SDS011;8926;49.720;6.576;2022-11-11T11:47:02;3.43;;;3.13;;
17614;SDS011;8926;49.720;6.576;2022-11-11T11:55:12;3.90;;;3.60;;
17614;SDS011;8926;49.720;6.576;2022-11-11T12:00:20;6.03;;;5.57;;
17614;SDS011;8926;49.720;6.576;2022-11-11T12:10:56;5.53;;;5.13;;
17614;SDS011;8926;49.720;6.576;2022-11-11T12:25:01;4.60;;;4.30;;
17614;SDS011;8926;49.720;6.576;2022-11-11T12:30:17;6.63;;;6.13;;
17614;SDS011;8926;49.720;6.576;2022-11-11T12:32:56;8.07;;;7.47;;
17614;SDS011;8926;49.720;6.576;2022-11-11T12:35:47;8.57;;;7.87;;
17614;SDS011;8926;49.720;6.576;2022-11-11T12:41:36;7.77;;;7.10;;
17614;SDS011;8926;49.720;6.576;2022-11-11T12:44:12;8.20;;;7.50;;
17614;SDS011;8926;49.720;6.576;2022-11-11T13:00:23;5.47;;;5.07;;
17614;SDS011;8926;49.720;6.576;2022-11-11T13:05:17;5.47;;;5.00;;
17614;SDS011;8926;49.720;6.576;2022-11-11T13:13:34;6.80;;;6.30;;
17614;SDS011;8926;49.720;6.576;2022-11-11T13:16:08;5.40;;;5.10;;
17614;SDS011;8926;49.720;6.576;2022-11-11T13:18:48;7.33;;;6.83;;
17614;SDS011;8926;49.720;6.576;2022-11-11T13:21:43;6.90;;;6.40;;
17614;SDS011;8926;49.720;6.576;2022-11-11T13:24:24;6.00;;;5.57;;
17614;SDS011;8926;49.720;6.576;2022-11-11T13:35:27;5.93;;;5.53;;
17614;SDS011;8926;49.720;6.576;2022-11-11T13:37:58;10.53;;;9.63;;
17614;SDS011;8926;49.720;6.576;2022-11-11T13:40:32;10.67;;;9.73;;
17614;SDS011;8926;49.720;6.576;2022-11-11T13:43:01;9.57;;;8.77;;
17614;SDS011;8926;49.720;6.576;2022-11-11T13:45:35;8.87;;;8.17;;
17614;SDS011;8926;49.720;6.576;2022-11-11T13:48:03;9.07;;;8.27;;
17614;SDS011;8926;49.720;6.576;2022-11-11T13:50:31;8.90;;;8.07;;
17614;SDS011;8926;49.720;6.576;2022-11-11T13:53:01;7.10;;;6.53;;
17614;SDS011;8926;49.720;6.576;2022-11-11T13:58:05;7.40;;;6.80;;
17614;SDS011;8926;49.720;6.576;2022-11-11T14:00:41;6.63;;;6.13;;
17614;SDS011;8926;49.720;6.576;2022-11-11T14:05:41;6.73;;;6.23;;
17614;SDS011;8926;49.720;6.576;2022-11-11T14:08:07;7.93;;;7.23;;
17614;SDS011;8926;49.720;6.576;2022-11-11T14:15:51;5.83;;;5.43;;
17614;SDS011;8926;49.720;6.576;2022-11-11T14:20:44;5.20;;;4.80;;
17614;SDS011;8926;49.720;6.576;2022-11-11T14:28:33;5.60;;;5.20;;
17614;SDS011;8926;49.720;6.576;2022-11-11T14:33:50;6.20;;;5.67;;
17614;SDS011;8926;49.720;6.576;2022-11-11T14:41:46;4.93;;;4.60;;
17614;SDS011;8926;49.720;6.576;2022-11-11T14:49:44;4.13;;;3.83;;
17614;SDS011;8926;49.720;6.576;2022-11-11T14:52:25;10.50;;;7.83;;
17614;SDS011;8926;49.720;6.576;2022-11-11T14:57:37;9.60;;;8.80;;
17614;SDS011;8926;49.720;6.576;2022-11-11T15:00:04;7.70;;;7.10;;
17614;SDS011;8926;49.720;6.576;2022-11-11T15:02:38;6.73;;;6.23;;
17614;SDS011;8926;49.720;6.576;2022-11-11T15:05:13;6.20;;;5.80;;
17614;SDS011;8926;49.720;6.576;2022-11-11T15:15:59;5.63;;;5.23;;
17614;SDS011;8926;49.720;6.576;2022-11-11T15:21:32;7.07;;;6.57;;
17614;SDS011;8926;49.720;6.576;2022-11-11T15:26:50;5.60;;;5.20;;
17614;SDS011;8926;49.720;6.576;2022-11-11T15:29:34;5.33;;;4.93;;
17614;SDS011;8926;49.720;6.576;2022-11-11T15:32:21;4.30;;;4.00;;
17614;SDS011;8926;49.720;6.576;2022-11-11T15:35:07;4.43;;;4.13;;
17614;SDS011;8926;49.720;6.576;2022-11-11T15:37:47;5.53;;;5.13;;
17614;SDS011;8926;49.720;6.576;2022-11-11T15:40:21;6.30;;;5.80;;
17614;SDS011;8926;49.720;6.576;2022-11-11T15:42:49;5.83;;;5.37;;
17614;SDS011;8926;49.720;6.576;2022-11-11T15:47:44;6.23;;;5.73;;
17614;SDS011;8926;49.720;6.576;2022-11-11T15:52:54;5.33;;;4.93;;
17614;SDS011;8926;49.720;6.576;2022-11-11T15:55:31;5.60;;;5.20;;
17614;SDS011;8926;49.720;6.576;2022-11-11T16:00:41;5.00;;;4.60;;
17614;SDS011;8926;49.720;6.576;2022-11-11T16:05:46;4.33;;;4.03;;
17614;SDS011;8926;49.720;6.576;2022-11-11T16:08:14;5.00;;;4.60;;
17614;SDS011;8926;49.720;6.576;2022-11-11T16:10:44;5.67;;;5.27;;
17614;SDS011;8926;49.720;6.576;2022-11-11T16:15:46;5.17;;;4.70;;
17614;SDS011;8926;49.720;6.576;2022-11-11T16:18:17;4.50;;;4.20;;
17614;SDS011;8926;49.720;6.576;2022-11-11T16:20:54;4.47;;;4.17;;
17614;SDS011;8926;49.720;6.576;2022-11-11T16:23:22;5.30;;;5.00;;
17614;SDS011;8926;49.720;6.576;2022-11-11T16:25:48;5.30;;;4.87;;
17614;SDS011;8926;49.720;6.576;2022-11-11T16:28:15;5.57;;;5.17;;
17614;SDS011;8926;49.720;6.576;2022-11-11T16:30:41;6.67;;;6.17;;
17614;SDS011;8926;49.720;6.576;2022-11-11T16:33:30;5.83;;;5.23;;
17614;SDS011;8926;49.720;6.576;2022-11-11T16:36:07;4.70;;;4.40;;
17614;SDS011;8926;49.720;6.576;2022-11-11T16:38:36;5.23;;;4.83;;
17614;SDS011;8926;49.720;6.576;2022-11-11T16:41:20;5.33;;;4.93;;
17614;SDS011;8926;49.720;6.576;2022-11-11T16:43:48;7.53;;;6.97;;
17614;SDS011;8926;49.720;6.576;2022-11-11T16:46:14;6.87;;;6.37;;
17614;SDS011;8926;49.720;6.576;2022-11-11T16:49:24;5.77;;;5.37;;
17614;SDS011;8926;49.720;6.576;2022-11-11T16:51:58;8.77;;;8.07;;
17614;SDS011;8926;49.720;6.576;2022-11-11T16:54:46;9.20;;;8.50;;
17614;SDS011;8926;49.720;6.576;2022-11-11T16:57:21;7.20;;;6.60;;
17614;SDS011;8926;49.720;6.576;2022-11-11T16:59:52;6.10;;;5.70;;
17614;SDS011;8926;49.720;6.576;2022-11-11T17:02:22;7.30;;;6.70;;
17614;SDS011;8926;49.720;6.576;2022-11-11T17:04:53;8.43;;;7.83;;
17614;SDS011;8926;49.720;6.576;2022-11-11T17:07:33;8.30;;;7.53;;
17614;SDS011;8926;49.720;6.576;2022-11-11T17:12:31;7.80;;;7.20;;
17614;SDS011;8926;49.720;6.576;2022-11-11T17:14:57;7.73;;;7.13;;
17614;SDS011;8926;49.720;6.576;2022-11-11T17:17:22;7.63;;;7.03;;
17614;SDS011;8926;49.720;6.576;2022-11-11T17:19:48;10.00;;;9.10;;
17614;SDS011;8926;49.720;6.576;2022-11-11T17:22:13;9.00;;;8.30;;
17614;SDS011;8926;49.720;6.576;2022-11-11T17:24:39;7.70;;;7.07;;
17614;SDS011;8926;49.720;6.576;2022-11-11T17:27:04;7.77;;;7.17;;
17614;SDS011;8926;49.720;6.576;2022-11-11T17:29:30;8.23;;;7.63;;
17614;SDS011;8926;49.720;6.576;2022-11-11T17:31:55;7.00;;;6.50;;
17614;SDS011;8926;49.720;6.576;2022-11-11T17:34:21;7.40;;;6.80;;
17614;SDS011;8926;49.720;6.576;2022-11-11T17:36:46;6.60;;;6.10;;
17614;SDS011;8926;49.720;6.576;2022-11-11T17:39:12;8.07;;;7.37;;
17614;SDS011;8926;49.720;6.576;2022-11-11T17:41:37;11.53;;;10.50;;
17614;SDS011;8926;49.720;6.576;2022-11-11T17:44:02;11.23;;;10.27;;
17614;SDS011;8926;49.720;6.576;2022-11-11T17:46:28;10.17;;;9.37;;
17614;SDS011;8926;49.720;6.576;2022-11-11T17:48:53;7.97;;;7.37;;
17614;SDS011;8926;49.720;6.576;2022-11-11T17:51:23;10.90;;;10.00;;
17614;SDS011;8926;49.720;6.576;2022-11-11T17:53:49;14.43;;;12.93;;
17614;SDS011;8926;49.720;6.576;2022-11-11T17:56:15;16.53;;;14.97;;
17614;SDS011;8926;49.720;6.576;2022-11-11T17:58:41;15.70;;;14.20;;
17614;SDS011;8926;49.720;6.576;2022-11-11T18:01:07;14.60;;;13.20;;